createdAt,value
2018-09-20T00:00:26.152Z,52.00
2018-09-20T00:02:54.697Z,52.10
2018-09-20T00:05:23.189Z,52.20
2018-09-20T00:07:51.811Z,52.20
2018-09-20T00:10:20.343Z,52.30
2018-09-20T00:12:48.966Z,52.30
2018-09-20T00:15:17.593Z,52.20
2018-09-20T00:17:46.195Z,52.40
2018-09-20T00:20:14.723Z,52.50
2018-09-20T00:22:43.221Z,52.70
2018-09-20T00:25:11.773Z,52.90
2018-09-20T00:27:40.352Z,53.10
2018-09-20T00:30:08.938Z,53.30
2018-09-20T00:32:37.450Z,53.50
2018-09-20T00:35:06.021Z,53.60
2018-09-20T00:37:34.547Z,53.70
2018-09-20T00:40:03.128Z,53.50
2018-09-20T00:42:31.719Z,53.90
2018-09-20T00:45:00.200Z,54.40
2018-09-20T00:47:28.715Z,54.80
2018-09-20T00:49:57.231Z,54.70
2018-09-20T00:52:25.767Z,54.90
2018-09-20T00:54:54.523Z,55.10
2018-09-20T00:57:24.293Z,55.30
2018-09-20T00:59:53.248Z,55.00
2018-09-20T01:02:22.044Z,55.50
2018-09-20T01:04:50.902Z,55.90
2018-09-20T01:07:19.772Z,56.30
2018-09-20T01:12:16.612Z,56.10
2018-09-20T01:14:45.096Z,56.60
2018-09-20T01:17:13.605Z,56.70
2018-09-20T01:19:42.104Z,57.20
2018-09-20T01:22:10.602Z,57.60
2018-09-20T01:24:39.096Z,57.40
2018-09-20T01:27:07.587Z,57.60
2018-09-20T01:29:36.577Z,57.70
2018-09-20T01:32:05.059Z,57.80
2018-09-20T01:34:33.564Z,57.90
2018-09-20T01:37:02.126Z,58.00
2018-09-20T01:39:31.017Z,58.10
2018-09-20T01:41:59.563Z,58.40
2018-09-20T01:44:28.096Z,58.40
2018-09-20T01:46:56.607Z,58.50
2018-09-20T01:49:25.089Z,58.70
2018-09-20T01:51:53.679Z,59.00
2018-09-20T01:54:22.169Z,59.20
2018-09-20T01:56:50.679Z,59.30
2018-09-20T01:59:19.247Z,59.10
2018-09-20T02:01:47.735Z,59.10
2018-09-20T02:04:16.220Z,59.00
2018-09-20T02:06:44.695Z,59.20
2018-09-20T02:09:13.213Z,59.10
2018-09-20T02:11:41.780Z,59.40
2018-09-20T02:14:10.436Z,59.60
2018-09-20T02:16:38.975Z,59.70
2018-09-20T02:19:07.587Z,59.50
2018-09-20T02:21:36.152Z,60.10
2018-09-20T02:24:04.736Z,59.90
2018-09-20T02:26:33.308Z,60.50
2018-09-20T02:29:02.103Z,60.40
2018-09-20T02:31:30.661Z,60.00
2018-09-20T02:33:59.182Z,60.50
2018-09-20T02:36:27.704Z,60.50
2018-09-20T02:38:56.393Z,60.40
2018-09-20T02:41:24.907Z,60.60
2018-09-20T02:43:53.456Z,60.10
2018-09-20T02:46:22.019Z,60.90
2018-09-20T02:48:50.704Z,61.00
2018-09-20T02:51:19.256Z,61.40
2018-09-20T02:53:47.849Z,61.60
2018-09-20T02:56:16.362Z,61.50
2018-09-20T02:58:45.045Z,61.70
2018-09-20T03:01:13.532Z,61.60
2018-09-20T03:03:42.042Z,61.60
2018-09-20T03:08:38.803Z,61.50
2018-09-20T03:13:35.449Z,61.40
2018-09-20T03:18:32.082Z,61.60
2018-09-20T03:21:00.716Z,61.30
2018-09-20T03:23:29.329Z,61.70
2018-09-20T03:25:57.841Z,61.70
2018-09-20T03:28:26.417Z,62.00
2018-09-20T03:30:55.073Z,62.30
2018-09-20T03:33:24.599Z,62.40
2018-09-20T03:35:53.144Z,62.50
2018-09-20T03:38:21.685Z,62.30
2018-09-20T03:43:18.392Z,62.50
2018-09-20T03:45:46.886Z,62.90
2018-09-20T03:48:15.475Z,63.00
2018-09-20T03:50:44.009Z,63.00
2018-09-20T03:53:13.859Z,62.80
2018-09-20T03:55:42.517Z,62.90
2018-09-20T03:58:11.063Z,63.40
2018-09-20T04:00:39.678Z,63.70
2018-09-20T04:03:08.238Z,63.70
2018-09-20T04:05:38.529Z,63.90
2018-09-20T04:08:07.545Z,64.00
2018-09-20T04:10:37.056Z,63.90
2018-09-20T04:15:34.020Z,64.20
2018-09-20T04:18:05.052Z,64.00
2018-09-20T04:23:02.271Z,63.60
2018-09-20T04:25:32.875Z,63.90
2018-09-20T04:28:01.445Z,63.70
2018-09-20T04:32:58.152Z,64.00
2018-09-20T04:35:26.695Z,64.40
2018-09-20T04:37:55.217Z,64.00
2018-09-20T04:40:23.785Z,64.50
2018-09-20T04:42:52.481Z,64.60
2018-09-20T04:45:21.021Z,64.60
2018-09-20T04:47:49.514Z,64.60
2018-09-20T04:50:18.096Z,64.60
2018-09-20T04:52:46.657Z,64.70
2018-09-20T05:00:11.546Z,64.60
2018-09-20T05:02:40.128Z,64.80
2018-09-20T05:05:08.812Z,64.90
2018-09-20T05:07:37.438Z,64.50
2018-09-20T05:10:06.013Z,65.10
2018-09-20T05:15:02.940Z,65.40
2018-09-20T05:17:31.463Z,65.60
2018-09-20T05:20:00.494Z,65.60
2018-09-20T05:22:29.078Z,66.00
2018-09-20T05:24:58.505Z,65.70
2018-09-20T05:27:27.029Z,65.70
2018-09-20T05:29:55.640Z,66.00
2018-09-20T05:32:24.177Z,65.70
2018-09-20T05:34:52.790Z,65.20
2018-09-20T05:37:21.320Z,65.80
2018-09-20T05:39:49.843Z,65.50
2018-09-20T05:42:18.417Z,65.60
2018-09-20T05:44:46.981Z,65.50
2018-09-20T05:47:15.523Z,65.40
2018-09-20T05:49:44.281Z,65.80
2018-09-20T05:52:12.819Z,65.70
2018-09-20T05:54:41.333Z,65.40
2018-09-20T05:57:09.916Z,65.20
2018-09-20T05:59:38.724Z,64.70
2018-09-20T06:02:07.340Z,64.70
2018-09-20T06:04:35.941Z,64.70
2018-09-20T06:07:04.667Z,64.50
2018-09-20T06:09:33.168Z,64.30
2018-09-20T06:12:01.680Z,64.40
2018-09-20T06:14:30.177Z,64.40
2018-09-20T06:16:58.701Z,64.30
2018-09-20T06:19:28.201Z,63.60
2018-09-20T06:21:56.709Z,64.00
2018-09-20T06:24:25.307Z,63.80
2018-09-20T06:26:53.841Z,63.60
2018-09-20T06:29:22.348Z,63.60
2018-09-20T06:31:50.915Z,63.80
2018-09-20T06:34:19.435Z,63.90
2018-09-20T06:36:48.087Z,63.80
2018-09-20T06:39:16.617Z,64.10
2018-09-20T06:41:45.305Z,63.90
2018-09-20T06:44:13.905Z,63.60
2018-09-20T06:46:42.466Z,63.40
2018-09-20T06:49:10.939Z,64.20
2018-09-20T06:51:39.506Z,63.20
2018-09-20T06:54:08.148Z,63.10
2018-09-20T06:56:36.797Z,62.70
2018-09-20T06:59:06.432Z,62.20
2018-09-20T07:01:35.159Z,61.20
2018-09-20T07:04:03.863Z,60.80
2018-09-20T07:06:32.388Z,60.00
2018-09-20T07:09:01.076Z,59.80
2018-09-20T07:11:29.601Z,59.30
2018-09-20T07:13:58.139Z,58.80
2018-09-20T07:16:26.669Z,58.60
2018-09-20T07:18:55.283Z,58.50
2018-09-20T07:23:53.167Z,58.80
2018-09-20T07:26:21.771Z,58.70
2018-09-20T07:28:50.270Z,58.80
2018-09-20T07:31:18.967Z,58.90
2018-09-20T07:33:47.521Z,58.70
2018-09-20T07:36:16.109Z,58.90
2018-09-20T07:38:44.637Z,58.50
2018-09-20T07:41:13.331Z,58.10
2018-09-20T07:43:42.012Z,57.90
2018-09-20T07:46:10.577Z,57.70
2018-09-20T07:48:39.991Z,57.50
2018-09-20T07:51:08.557Z,56.90
2018-09-20T07:53:37.184Z,56.40
2018-09-20T07:56:05.928Z,56.40
2018-09-20T07:58:34.494Z,56.10
2018-09-20T08:01:03.009Z,56.20
2018-09-20T08:03:31.616Z,55.80
2018-09-20T08:06:00.104Z,55.80
2018-09-20T08:08:29.668Z,55.50
2018-09-20T08:10:58.272Z,55.20
2018-09-20T08:13:26.841Z,54.70
2018-09-20T08:15:55.366Z,54.50
2018-09-20T08:18:24.653Z,54.20
2018-09-20T08:20:54.231Z,53.70
2018-09-20T08:23:22.848Z,53.20
2018-09-20T08:25:51.560Z,53.10
2018-09-20T08:28:20.276Z,52.60
2018-09-20T08:30:48.843Z,52.30
2018-09-20T08:33:17.462Z,52.70
2018-09-20T08:35:46.381Z,52.60
2018-09-20T08:38:15.003Z,52.50
2018-09-20T08:40:43.695Z,52.40
2018-09-20T08:43:12.193Z,52.10
2018-09-20T08:45:40.818Z,51.90
2018-09-20T08:48:09.334Z,52.20
2018-09-20T08:50:37.954Z,52.00
2018-09-20T08:53:07.061Z,51.80
2018-09-20T08:58:04.523Z,51.60
2018-09-20T09:00:33.133Z,51.40
2018-09-20T09:03:01.697Z,52.50
2018-09-20T09:07:58.475Z,51.70
2018-09-20T09:10:27.313Z,51.60
2018-09-20T09:12:55.940Z,50.90
2018-09-20T09:15:24.520Z,50.80
2018-09-20T09:17:53.500Z,50.40
2018-09-20T09:22:50.189Z,50.00
2018-09-20T09:25:19.225Z,49.70
2018-09-20T09:27:47.821Z,49.40
2018-09-20T09:32:44.683Z,49.50
2018-09-20T09:37:41.539Z,49.10
2018-09-20T09:42:38.654Z,48.70
2018-09-20T09:45:07.461Z,48.40
2018-09-20T09:47:36.020Z,48.20
2018-09-20T09:50:04.904Z,47.80
2018-09-20T09:52:33.805Z,47.80
2018-09-20T09:55:03.362Z,47.60
2018-09-20T09:57:31.910Z,47.40
2018-09-20T10:00:00.501Z,46.90
2018-09-20T10:02:30.377Z,46.60
2018-09-20T10:04:58.978Z,45.60
2018-09-20T10:07:28.839Z,45.50
2018-09-20T10:09:57.444Z,45.10
2018-09-20T10:12:26.048Z,45.00
2018-09-20T10:14:55.614Z,45.10
2018-09-20T10:17:24.223Z,44.60
2018-09-20T10:19:52.969Z,45.00
2018-09-20T10:24:50.329Z,44.00
2018-09-20T10:27:19.085Z,44.30
2018-09-20T10:29:47.790Z,44.70
2018-09-20T10:32:16.382Z,44.60
2018-09-20T10:34:44.907Z,44.30
2018-09-20T10:37:13.503Z,44.40
2018-09-20T10:39:42.064Z,44.40
2018-09-20T10:42:11.823Z,44.20
2018-09-20T10:44:54.014Z,44.30
2018-09-20T10:47:22.854Z,44.30
2018-09-20T10:49:51.698Z,44.30
2018-09-20T10:52:20.347Z,44.30
2018-09-20T10:57:52.152Z,42.90
2018-09-20T11:00:29.443Z,42.60
2018-09-20T11:02:58.415Z,42.20
2018-09-20T11:08:23.728Z,41.90
2018-09-20T11:10:52.374Z,41.80
2018-09-20T11:13:21.046Z,41.60
2018-09-20T11:15:50.085Z,42.40
2018-09-20T11:18:18.699Z,42.10
2018-09-20T11:20:47.497Z,42.10
2018-09-20T11:23:16.308Z,42.00
2018-09-20T11:25:45.067Z,42.20
2018-09-20T11:28:13.617Z,41.90
2018-09-20T11:30:42.235Z,41.70
2018-09-20T11:33:11.009Z,41.70
2018-09-20T11:35:39.562Z,41.30
2018-09-20T11:38:08.169Z,41.60
2018-09-20T11:40:36.863Z,41.30
2018-09-20T11:43:05.510Z,41.60
2018-09-20T11:45:34.066Z,41.50
2018-09-20T11:48:02.769Z,41.50
2018-09-20T11:50:31.434Z,41.80
2018-09-20T11:52:59.979Z,41.80
2018-09-20T11:55:29.236Z,41.40
2018-09-20T11:57:57.905Z,41.30
2018-09-20T12:00:26.522Z,40.40
2018-09-20T12:05:23.582Z,41.10
2018-09-20T12:07:52.235Z,41.30
2018-09-20T12:10:20.914Z,40.40
2018-09-20T12:12:49.533Z,40.10
2018-09-20T12:20:14.897Z,40.10
2018-09-20T12:22:43.535Z,39.80
2018-09-20T12:25:12.451Z,39.60
2018-09-20T12:27:43.493Z,39.90
2018-09-20T12:30:12.409Z,39.80
2018-09-20T12:32:41.068Z,39.80
2018-09-20T12:35:12.768Z,39.40
2018-09-20T12:37:42.213Z,38.50
2018-09-20T12:40:12.115Z,38.20
2018-09-20T12:42:47.555Z,38.00
2018-09-20T12:45:16.537Z,37.30
2018-09-20T12:47:46.347Z,37.90
2018-09-20T12:50:19.665Z,36.30
2018-09-20T12:52:48.432Z,37.00
2018-09-20T12:55:17.022Z,35.70
2018-09-20T12:57:45.665Z,35.80
2018-09-20T13:00:14.257Z,34.50
2018-09-20T13:02:42.826Z,34.20
2018-09-20T13:05:12.154Z,33.90
2018-09-20T13:07:40.965Z,34.50
2018-09-20T13:10:09.668Z,34.20
2018-09-20T13:12:38.388Z,34.70
2018-09-20T13:15:07.555Z,34.50
2018-09-20T13:20:04.976Z,34.80
2018-09-20T13:22:33.575Z,35.40
2018-09-20T13:25:02.201Z,35.80
2018-09-20T13:27:30.775Z,35.60
2018-09-20T13:29:59.590Z,35.40
2018-09-20T13:32:28.413Z,35.20
2018-09-20T13:34:57.400Z,35.20
2018-09-20T13:37:26.326Z,35.50
2018-09-20T13:42:23.269Z,33.10
2018-09-20T13:44:51.913Z,33.70
2018-09-20T13:47:20.565Z,33.40
2018-09-20T13:52:17.601Z,33.30
2018-09-20T13:54:46.132Z,34.20
2018-09-20T13:57:14.795Z,32.90
2018-09-20T13:59:44.182Z,33.10
2018-09-20T14:02:15.291Z,32.60
2018-09-20T14:04:46.869Z,33.60
2018-09-20T14:07:20.797Z,32.90
2018-09-20T14:12:26.424Z,32.80
2018-09-20T14:15:01.578Z,32.40
2018-09-20T14:17:32.023Z,32.20
2018-09-20T14:20:11.362Z,32.30
2018-09-20T14:25:20.882Z,32.70
2018-09-20T14:27:52.968Z,33.10
2018-09-20T14:30:27.123Z,32.70
2018-09-20T14:32:58.248Z,32.60
2018-09-20T14:35:26.790Z,32.20
2018-09-20T14:40:28.414Z,32.40
2018-09-20T14:42:56.973Z,33.20
2018-09-20T14:45:35.686Z,33.80
2018-09-20T14:48:11.237Z,32.70
2018-09-20T14:55:36.502Z,32.70
2018-09-20T14:58:06.546Z,33.00
2018-09-20T15:00:35.225Z,33.00
2018-09-20T15:03:05.922Z,32.80
2018-09-20T15:05:34.599Z,33.90
2018-09-20T15:08:04.002Z,32.50
2018-09-20T15:10:33.260Z,32.90
2018-09-20T15:13:02.729Z,33.40
2018-09-20T15:15:31.852Z,32.90
2018-09-20T15:18:00.515Z,33.80
2018-09-20T15:20:29.657Z,33.00
2018-09-20T15:22:58.592Z,33.40
2018-09-20T15:25:27.888Z,32.50
2018-09-20T15:27:57.889Z,32.70
2018-09-20T15:30:26.428Z,32.70
2018-09-20T15:32:56.836Z,32.90
2018-09-20T15:35:26.409Z,32.80
2018-09-20T15:37:56.944Z,32.70
2018-09-20T15:40:27.564Z,32.70
2018-09-20T15:42:59.725Z,32.70
2018-09-20T15:45:31.806Z,32.60
2018-09-20T15:48:06.486Z,33.10
2018-09-20T15:50:39.693Z,33.00
2018-09-20T15:55:41.323Z,33.30
2018-09-20T15:58:11.428Z,33.30
2018-09-20T16:03:39.162Z,33.00
2018-09-20T16:06:07.865Z,33.00
2018-09-20T16:08:36.524Z,33.70
2018-09-20T16:11:05.142Z,33.40
2018-09-20T16:13:33.676Z,33.30
2018-09-20T16:16:04.781Z,33.60
2018-09-20T16:21:02.444Z,32.60
2018-09-20T16:23:32.065Z,33.20
2018-09-20T16:26:00.627Z,33.10
2018-09-20T16:28:46.382Z,33.20
2018-09-20T16:31:33.725Z,33.40
2018-09-20T16:34:17.320Z,34.10
2018-09-20T16:36:56.655Z,34.10
2018-09-20T16:39:27.318Z,34.30
2018-09-20T16:42:04.123Z,34.60
2018-09-20T16:44:42.602Z,35.10
2018-09-20T16:47:12.544Z,35.40
2018-09-20T16:49:42.317Z,35.80
2018-09-20T16:52:12.135Z,36.00
2018-09-20T16:54:42.925Z,36.10
2018-09-20T16:57:12.549Z,35.80
2018-09-20T16:59:42.182Z,35.80
2018-09-20T17:02:12.024Z,35.90
2018-09-20T17:04:41.483Z,36.10
2018-09-20T17:07:10.983Z,35.80
2018-09-20T17:09:40.027Z,36.00
2018-09-20T17:12:09.754Z,36.50
2018-09-20T17:17:09.513Z,35.90
2018-09-20T17:19:44.183Z,35.80
2018-09-20T17:22:16.151Z,36.00
2018-09-20T17:24:47.146Z,36.10
2018-09-20T17:27:16.817Z,36.30
2018-09-20T17:29:47.574Z,36.40
2018-09-20T17:32:21.345Z,36.60
2018-09-20T17:46:01.953Z,36.90
2018-09-20T18:30:07.724Z,38.30
2018-09-20T18:32:38.748Z,38.30
2018-09-20T18:35:10.671Z,38.30
2018-09-20T18:37:43.276Z,38.30
2018-09-20T18:41:20.021Z,38.30
2018-09-20T18:43:48.932Z,38.30
2018-09-20T18:46:18.601Z,38.90
2018-09-20T18:49:01.934Z,38.60
2018-09-20T18:51:32.798Z,38.60
2018-09-20T18:54:02.457Z,38.80
2018-09-20T18:56:32.798Z,38.90
2018-09-20T18:59:10.389Z,39.00
2018-09-20T19:01:43.873Z,39.00
2018-09-20T19:04:14.349Z,39.20
2018-09-20T19:06:43.464Z,39.40
2018-09-20T19:09:21.449Z,39.50
2018-09-20T19:11:51.932Z,39.50
2018-09-20T19:14:21.166Z,39.40
2018-09-20T19:16:52.103Z,39.50
2018-09-20T19:19:23.663Z,39.50
2018-09-20T19:21:52.657Z,39.50
2018-09-20T19:24:21.665Z,39.50
2018-09-20T19:26:50.285Z,39.50
2018-09-20T19:29:20.052Z,39.70
2018-09-20T19:34:17.179Z,40.00
2018-09-20T19:36:46.071Z,40.20
2018-09-20T19:39:14.755Z,40.40
2018-09-20T19:41:59.037Z,40.50
2018-09-20T19:44:28.523Z,41.30
2018-09-20T19:46:57.249Z,40.70
2018-09-20T19:49:25.983Z,40.90
2018-09-20T19:51:55.587Z,41.00
2018-09-20T19:54:24.380Z,41.00
2018-09-20T19:56:52.935Z,41.30
2018-09-20T19:59:22.112Z,41.40
2018-09-20T20:01:50.804Z,41.60
2018-09-20T20:04:19.350Z,41.60
2018-09-20T20:09:17.373Z,41.80
2018-09-20T20:11:45.982Z,41.90
2018-09-20T20:14:14.561Z,41.90
2018-09-20T20:16:43.193Z,42.10
2018-09-20T20:24:09.440Z,42.00
2018-09-20T20:29:06.882Z,43.00
2018-09-20T20:31:35.472Z,42.20
2018-09-20T20:34:04.097Z,42.50
2018-09-20T20:36:32.741Z,42.60
2018-09-20T20:39:01.285Z,42.90
2018-09-20T20:41:29.894Z,43.10
2018-09-20T20:43:58.628Z,43.30
2018-09-20T20:46:27.227Z,43.30
2018-09-20T20:48:56.981Z,43.50
2018-09-20T20:51:25.778Z,43.50
2018-09-20T20:53:54.360Z,43.70
2018-09-20T20:56:23.069Z,43.60
2018-09-20T20:58:51.747Z,43.70
2018-09-20T21:01:21.441Z,44.70
2018-09-20T21:03:50.737Z,44.10
2018-09-20T21:06:19.965Z,44.10
2018-09-20T21:08:48.769Z,44.30
2018-09-20T21:11:17.427Z,44.20
2018-09-20T21:13:46.055Z,44.40
2018-09-20T21:16:14.726Z,44.60
2018-09-20T21:20:22.218Z,44.80
2018-09-20T21:23:30.289Z,44.80
2018-09-20T21:30:58.425Z,45.40
2018-09-20T21:41:59.397Z,46.10
2018-09-20T22:05:48.455Z,46.90
2018-09-20T22:11:39.089Z,48.30
2018-09-20T22:17:02.714Z,47.90
2018-09-20T22:21:59.816Z,47.30
2018-09-20T22:24:28.491Z,47.20
2018-09-20T22:26:57.220Z,47.00
2018-09-20T22:29:25.846Z,47.30
2018-09-20T22:37:53.054Z,47.30
2018-09-20T22:40:33.756Z,47.40
2018-09-20T22:43:11.867Z,47.60
2018-09-20T22:45:53.054Z,47.60
2018-09-20T22:48:26.786Z,47.60
2018-09-20T22:50:59.503Z,47.70
2018-09-20T22:53:35.353Z,47.80
2018-09-20T22:56:07.316Z,47.90
2018-09-20T22:58:48.234Z,47.90
2018-09-20T23:04:14.324Z,47.80
2018-09-20T23:07:10.901Z,48.00
2018-09-20T23:12:02.497Z,48.10
2018-09-20T23:14:32.689Z,48.40
2018-09-20T23:19:29.977Z,49.30
2018-09-20T23:21:58.720Z,49.20
2018-09-20T23:24:27.659Z,49.00
2018-09-20T23:26:57.064Z,49.10
2018-09-20T23:29:25.916Z,49.20
2018-09-20T23:34:22.957Z,49.20
2018-09-20T23:36:51.654Z,49.30
2018-09-20T23:39:20.283Z,49.30
2018-09-20T23:41:59.422Z,49.40
2018-09-20T23:44:32.242Z,49.50
2018-09-20T23:47:17.477Z,49.70
2018-09-20T23:50:43.637Z,49.80
2018-09-20T23:53:17.458Z,50.00
2018-09-20T23:55:56.419Z,50.30
2018-09-20T23:58:43.287Z,50.20
